createdAt,value
2023-09-09T00:00:43.854Z,6.38
2023-09-09T00:03:10.810Z,6.80
2023-09-09T00:05:37.586Z,6.30
2023-09-09T00:08:04.776Z,6.60
2023-09-09T00:10:31.569Z,6.50
2023-09-09T00:12:58.819Z,6.70
2023-09-09T00:15:25.630Z,6.30
2023-09-09T00:17:52.594Z,6.70
2023-09-09T00:20:19.429Z,6.65
2023-09-09T00:22:46.183Z,6.85
2023-09-09T00:25:12.940Z,7.10
2023-09-09T00:27:40.188Z,6.88
2023-09-09T00:30:08.067Z,7.03
2023-09-09T00:32:34.892Z,6.43
2023-09-09T00:35:01.642Z,6.93
2023-09-09T00:37:28.386Z,7.10
2023-09-09T00:39:55.099Z,6.78
2023-09-09T00:42:21.863Z,7.10
2023-09-09T00:44:48.595Z,7.07
2023-09-09T00:47:15.475Z,6.68
2023-09-09T00:49:42.269Z,6.88
2023-09-09T00:52:09.564Z,6.82
2023-09-09T00:54:36.724Z,6.90
2023-09-09T00:57:05.770Z,6.57
2023-09-09T00:59:33.357Z,6.93
2023-09-09T01:02:00.659Z,6.97
2023-09-09T01:04:27.510Z,7.07
2023-09-09T01:06:54.539Z,6.90
2023-09-09T01:09:21.347Z,7.10
2023-09-09T01:11:48.060Z,6.55
2023-09-09T01:14:15.027Z,7.05
2023-09-09T01:16:42.822Z,6.90
2023-09-09T01:19:09.933Z,6.97
2023-09-09T01:21:37.405Z,7.10
2023-09-09T01:24:04.429Z,7.20
2023-09-09T01:26:31.317Z,6.90
2023-09-09T01:28:58.183Z,6.93
2023-09-09T01:31:25.003Z,6.80
2023-09-09T01:33:56.709Z,6.60
2023-09-09T01:36:23.488Z,7.10
2023-09-09T01:38:50.160Z,7.13
2023-09-09T01:41:16.900Z,7.07
2023-09-09T01:43:43.779Z,6.38
2023-09-09T01:46:10.601Z,6.82
2023-09-09T01:48:38.280Z,6.90
2023-09-09T01:51:05.049Z,6.78
2023-09-09T01:53:31.753Z,6.78
2023-09-09T01:55:59.795Z,7.13
2023-09-09T01:58:26.578Z,6.80
2023-09-09T02:00:53.268Z,6.50
2023-09-09T02:03:20.410Z,6.82
2023-09-09T02:05:47.243Z,7.25
2023-09-09T02:08:13.964Z,6.82
2023-09-09T02:10:41.368Z,7.00
2023-09-09T02:13:08.064Z,6.95
2023-09-09T02:15:34.894Z,6.57
2023-09-09T02:18:01.686Z,6.80
2023-09-09T02:20:28.435Z,6.70
2023-09-09T02:22:55.209Z,6.32
2023-09-09T02:25:21.925Z,6.43
2023-09-09T02:27:48.779Z,6.50
2023-09-09T02:30:15.531Z,6.40
2023-09-09T02:32:45.356Z,7.07
2023-09-09T02:35:12.274Z,6.97
2023-09-09T02:37:39.135Z,5.95
2023-09-09T02:40:06.399Z,6.45
2023-09-09T02:42:33.249Z,6.63
2023-09-09T02:45:00.175Z,6.28
2023-09-09T02:47:26.938Z,6.65
2023-09-09T02:49:54.978Z,6.90
2023-09-09T02:52:21.957Z,6.65
2023-09-09T02:54:48.828Z,6.63
2023-09-09T02:57:15.617Z,6.65
2023-09-09T02:59:42.408Z,6.15
2023-09-09T03:02:09.737Z,6.78
2023-09-09T03:04:36.555Z,6.50
2023-09-09T03:07:03.665Z,6.95
2023-09-09T03:09:31.394Z,6.50
2023-09-09T03:11:58.184Z,6.50
2023-09-09T03:14:25.325Z,6.60
2023-09-09T03:16:52.304Z,6.65
2023-09-09T03:19:19.081Z,6.60
2023-09-09T03:21:46.531Z,6.55
2023-09-09T03:24:13.282Z,6.50
2023-09-09T03:26:40.129Z,6.80
2023-09-09T03:29:06.858Z,6.53
2023-09-09T03:31:35.169Z,6.60
2023-09-09T03:34:02.009Z,6.80
2023-09-09T03:36:29.947Z,6.53
2023-09-09T03:38:57.005Z,6.43
2023-09-09T03:41:23.813Z,6.40
2023-09-09T03:43:50.634Z,6.20
2023-09-09T03:46:17.516Z,6.60
2023-09-09T03:48:44.363Z,6.50
2023-09-09T03:51:11.116Z,6.55
2023-09-09T03:53:38.096Z,6.10
2023-09-09T03:56:05.300Z,6.93
2023-09-09T03:58:32.224Z,6.20
2023-09-09T04:01:10.257Z,6.60
2023-09-09T04:03:38.754Z,6.68
2023-09-09T04:06:08.056Z,6.50
2023-09-09T04:08:36.013Z,6.60
2023-09-09T04:11:03.358Z,6.63
2023-09-09T04:13:30.439Z,6.78
2023-09-09T04:15:58.358Z,6.55
2023-09-09T04:18:42.228Z,6.85
2023-09-09T04:21:11.397Z,6.35
2023-09-09T04:23:38.562Z,6.40
2023-09-09T04:26:05.636Z,7.95
2023-09-09T04:28:32.495Z,8.32
2023-09-09T04:30:59.394Z,7.40
2023-09-09T04:33:26.168Z,7.07
2023-09-09T04:35:52.967Z,8.05
2023-09-09T04:38:21.040Z,7.18
2023-09-09T04:40:47.744Z,7.40
2023-09-09T04:43:14.529Z,7.22
2023-09-09T04:45:41.290Z,6.78
2023-09-09T04:48:08.148Z,6.72
2023-09-09T04:50:35.097Z,7.43
2023-09-09T04:53:03.896Z,6.72
2023-09-09T04:55:30.840Z,6.78
2023-09-09T04:57:57.645Z,6.80
2023-09-09T05:00:24.374Z,7.05
2023-09-09T05:02:51.117Z,6.90
2023-09-09T05:05:17.984Z,7.05
2023-09-09T05:07:44.757Z,6.50
2023-09-09T05:10:11.532Z,6.70
2023-09-09T05:12:38.375Z,6.82
2023-09-09T05:15:08.200Z,6.60
2023-09-09T05:17:35.242Z,6.22
2023-09-09T05:20:02.102Z,7.05
2023-09-09T05:22:28.835Z,7.50
2023-09-09T05:24:55.524Z,7.05
2023-09-09T05:27:22.298Z,7.07
2023-09-09T05:29:49.113Z,7.05
2023-09-09T05:32:17.526Z,6.75
2023-09-09T05:34:44.455Z,6.78
2023-09-09T05:37:11.246Z,6.80
2023-09-09T05:39:38.011Z,6.80
2023-09-09T05:42:07.788Z,6.88
2023-09-09T05:44:40.459Z,7.07
2023-09-09T05:47:08.466Z,6.03
2023-09-09T05:49:39.276Z,6.53
2023-09-09T05:52:08.026Z,6.25
2023-09-09T05:54:34.920Z,6.38
2023-09-09T05:57:01.976Z,6.45
2023-09-09T05:59:29.043Z,6.90
2023-09-09T06:01:55.809Z,6.93
2023-09-09T06:04:22.801Z,6.45
2023-09-09T06:06:49.912Z,6.70
2023-09-09T06:09:16.852Z,6.22
2023-09-09T06:11:43.690Z,6.88
2023-09-09T06:14:10.523Z,6.53
2023-09-09T06:16:37.347Z,7.00
2023-09-09T06:19:04.158Z,6.90
2023-09-09T06:21:30.912Z,6.63
2023-09-09T06:23:57.692Z,6.90
2023-09-09T06:26:24.629Z,7.25
2023-09-09T06:28:51.403Z,6.60
2023-09-09T06:31:18.187Z,6.53
2023-09-09T06:33:45.643Z,6.53
2023-09-09T06:36:12.722Z,6.90
2023-09-09T06:38:39.823Z,6.28
2023-09-09T06:41:06.609Z,6.22
2023-09-09T06:43:33.349Z,6.30
2023-09-09T06:46:03.130Z,5.80
2023-09-09T06:48:31.527Z,6.20
2023-09-09T06:51:01.148Z,5.78
2023-09-09T06:53:28.267Z,5.95
2023-09-09T06:55:55.011Z,7.00
2023-09-09T06:58:21.820Z,6.00
2023-09-09T07:00:52.664Z,6.45
2023-09-09T07:03:22.468Z,6.10
2023-09-09T07:05:49.683Z,7.00
2023-09-09T07:08:16.485Z,7.70
2023-09-09T07:10:53.157Z,6.65
2023-09-09T07:13:23.749Z,6.75
2023-09-09T07:15:54.717Z,6.18
2023-09-09T07:18:22.562Z,6.70
2023-09-09T07:20:50.401Z,6.88
2023-09-09T07:23:18.515Z,6.50
2023-09-09T07:25:46.260Z,6.65
2023-09-09T07:28:13.100Z,6.43
2023-09-09T07:30:40.020Z,6.15
2023-09-09T07:33:06.971Z,6.20
2023-09-09T07:35:36.655Z,5.63
2023-09-09T07:38:07.872Z,6.03
2023-09-09T07:40:35.516Z,6.80
2023-09-09T07:43:02.847Z,6.13
2023-09-09T07:45:30.005Z,6.43
2023-09-09T07:47:57.568Z,6.28
2023-09-09T07:50:24.520Z,6.18
2023-09-09T07:52:51.241Z,6.70
2023-09-09T07:55:18.062Z,6.22
2023-09-09T07:57:44.831Z,6.72
2023-09-09T08:00:12.266Z,6.55
2023-09-09T08:02:39.310Z,7.20
2023-09-09T08:05:08.019Z,6.93
2023-09-09T08:07:34.839Z,6.13
2023-09-09T08:10:01.641Z,6.30
2023-09-09T08:12:28.356Z,6.40
2023-09-09T08:15:05.949Z,6.65
2023-09-09T08:17:33.083Z,6.93
2023-09-09T08:19:59.951Z,6.57
2023-09-09T08:22:27.941Z,6.82
2023-09-09T08:24:54.758Z,7.03
2023-09-09T08:27:21.622Z,6.82
2023-09-09T08:29:48.430Z,7.30
2023-09-09T08:32:15.267Z,7.50
2023-09-09T08:34:43.295Z,7.50
2023-09-09T08:37:10.379Z,7.20
2023-09-09T08:39:37.185Z,7.75
2023-09-09T08:42:21.836Z,7.65
2023-09-09T08:45:02.671Z,8.10
2023-09-09T08:47:36.880Z,7.65
2023-09-09T08:50:05.526Z,7.78
2023-09-09T08:52:32.362Z,6.90
2023-09-09T08:54:59.206Z,8.38
2023-09-09T08:57:27.282Z,8.25
2023-09-09T08:59:54.632Z,7.80
2023-09-09T09:02:22.320Z,8.05
2023-09-09T09:04:49.420Z,8.13
2023-09-09T09:07:17.055Z,8.05
2023-09-09T09:09:43.805Z,8.80
2023-09-09T09:12:12.680Z,8.05
2023-09-09T09:14:47.198Z,7.95
2023-09-09T09:17:16.389Z,9.02
2023-09-09T09:19:43.671Z,8.38
2023-09-09T09:22:10.702Z,8.93
2023-09-09T09:24:43.164Z,10.30
2023-09-09T09:27:13.873Z,9.80
2023-09-09T09:29:42.344Z,10.45
2023-09-09T09:32:11.795Z,10.10
2023-09-09T09:34:38.693Z,9.30
2023-09-09T09:37:16.468Z,8.50
2023-09-09T09:39:58.426Z,9.65
2023-09-09T09:42:25.321Z,10.05
2023-09-09T09:45:08.915Z,10.70
2023-09-09T09:47:47.908Z,10.63
2023-09-09T09:50:29.996Z,11.32
2023-09-09T09:53:03.868Z,11.63
2023-09-09T09:55:32.279Z,13.07
2023-09-09T09:58:00.955Z,13.43
2023-09-09T10:00:28.627Z,14.20
2023-09-09T10:02:57.394Z,12.80
2023-09-09T10:05:27.098Z,11.80
2023-09-09T10:07:59.780Z,12.35
2023-09-09T10:10:27.180Z,12.90
2023-09-09T10:13:07.659Z,13.45
2023-09-09T10:15:35.640Z,13.82
2023-09-09T10:18:03.892Z,12.05
2023-09-09T10:20:31.185Z,12.40
2023-09-09T10:23:01.402Z,12.90
2023-09-09T10:25:28.603Z,11.80
2023-09-09T10:27:55.451Z,11.50
2023-09-09T10:30:22.894Z,11.07
2023-09-09T10:32:50.311Z,10.30
2023-09-09T10:35:19.009Z,9.32
2023-09-09T10:37:47.956Z,9.30
2023-09-09T10:40:15.709Z,9.25
2023-09-09T10:42:43.360Z,9.70
2023-09-09T10:45:30.186Z,8.80
2023-09-09T10:48:08.067Z,9.73
2023-09-09T10:50:46.180Z,9.88
2023-09-09T10:53:33.658Z,9.18
2023-09-09T10:56:19.027Z,8.88
2023-09-09T10:58:45.863Z,9.82
2023-09-09T11:01:26.259Z,9.18
2023-09-09T11:03:53.831Z,9.25
2023-09-09T11:06:21.606Z,8.65
2023-09-09T11:08:49.306Z,9.63
2023-09-09T11:11:25.044Z,8.48
2023-09-09T11:14:01.880Z,8.88
2023-09-09T11:16:35.542Z,10.85
2023-09-09T11:19:08.353Z,10.35
2023-09-09T11:21:36.738Z,9.90
2023-09-09T11:24:03.890Z,9.43
2023-09-09T11:26:31.331Z,13.60
2023-09-09T11:28:58.747Z,11.90
2023-09-09T11:31:28.351Z,10.95
2023-09-09T11:33:58.815Z,9.48
2023-09-09T11:36:25.837Z,8.57
2023-09-09T11:38:54.761Z,9.23
2023-09-09T11:41:23.119Z,9.80
2023-09-09T11:44:10.148Z,8.65
2023-09-09T11:46:46.392Z,8.98
2023-09-09T11:49:14.242Z,9.80
2023-09-09T11:51:41.278Z,9.27
2023-09-09T11:54:09.369Z,8.95
2023-09-09T11:56:36.533Z,9.52
2023-09-09T11:59:10.673Z,9.80
2023-09-09T12:01:43.992Z,12.05
2023-09-09T12:04:24.098Z,10.32
2023-09-09T12:06:55.295Z,10.57
2023-09-09T12:09:22.410Z,10.15
2023-09-09T12:11:49.331Z,9.13
2023-09-09T12:14:16.482Z,8.88
2023-09-09T12:16:43.890Z,8.95
2023-09-09T12:19:15.041Z,8.55
2023-09-09T12:21:50.435Z,9.35
2023-09-09T12:24:17.402Z,8.63
2023-09-09T12:26:57.496Z,7.47
2023-09-09T12:29:24.270Z,6.78
2023-09-09T12:31:56.462Z,7.20
2023-09-09T12:34:25.770Z,7.68
2023-09-09T12:36:58.012Z,5.88
2023-09-09T12:39:28.657Z,5.97
2023-09-09T12:42:06.515Z,5.88
2023-09-09T12:44:53.825Z,6.03
2023-09-09T12:47:22.165Z,5.30
2023-09-09T12:49:51.770Z,6.50
2023-09-09T12:52:18.667Z,6.95
2023-09-09T12:54:45.497Z,7.07
2023-09-09T12:57:12.286Z,6.60
2023-09-09T12:59:39.086Z,5.50
2023-09-09T13:02:06.422Z,5.47
2023-09-09T13:04:33.232Z,5.82
2023-09-09T13:07:00.108Z,6.35
2023-09-09T13:09:27.014Z,5.75
2023-09-09T13:11:53.850Z,6.75
2023-09-09T13:14:25.981Z,6.20
2023-09-09T13:16:53.487Z,6.82
2023-09-09T13:19:21.355Z,6.97
2023-09-09T13:21:49.570Z,8.40
2023-09-09T13:24:16.362Z,13.38
2023-09-09T13:26:43.093Z,11.38
2023-09-09T13:29:09.831Z,7.00
2023-09-09T13:31:38.638Z,5.93
2023-09-09T13:34:08.127Z,6.03
2023-09-09T13:36:34.844Z,6.00
2023-09-09T13:39:01.578Z,6.03
2023-09-09T13:41:30.172Z,5.20
2023-09-09T13:43:57.115Z,5.07
2023-09-09T13:46:25.848Z,4.95
2023-09-09T13:48:52.690Z,4.95
2023-09-09T13:51:20.022Z,4.15
2023-09-09T13:53:46.883Z,4.68
2023-09-09T13:56:14.539Z,4.95
2023-09-09T13:58:41.316Z,5.22
2023-09-09T14:01:08.211Z,5.53
2023-09-09T14:03:35.119Z,4.97
2023-09-09T14:06:05.032Z,5.00
2023-09-09T14:08:36.948Z,4.80
2023-09-09T14:11:03.871Z,5.18
2023-09-09T14:13:30.693Z,5.28
2023-09-09T14:16:02.998Z,4.70
2023-09-09T14:18:29.862Z,4.63
2023-09-09T14:20:56.720Z,4.72
2023-09-09T14:23:23.480Z,4.00
2023-09-09T14:25:50.216Z,4.50
2023-09-09T14:28:17.063Z,4.28
2023-09-09T14:30:47.377Z,4.13
2023-09-09T14:33:16.318Z,4.25
2023-09-09T14:35:43.364Z,4.63
2023-09-09T14:38:10.306Z,4.80
2023-09-09T14:40:39.555Z,4.65
2023-09-09T14:43:06.922Z,5.05
2023-09-09T14:45:33.716Z,4.72
2023-09-09T14:48:00.517Z,4.65
2023-09-09T14:50:28.015Z,6.28
2023-09-09T14:52:54.886Z,4.70
2023-09-09T14:55:21.602Z,4.40
2023-09-09T14:57:48.370Z,4.00
2023-09-09T15:00:15.502Z,4.05
2023-09-09T15:02:42.347Z,3.92
2023-09-09T15:05:11.861Z,4.18
2023-09-09T15:07:39.354Z,3.97
2023-09-09T15:10:06.650Z,4.18
2023-09-09T15:12:33.442Z,4.55
2023-09-09T15:15:01.571Z,5.07
2023-09-09T15:17:32.869Z,8.55
2023-09-09T15:20:07.437Z,6.10
2023-09-09T15:22:34.407Z,4.22
2023-09-09T15:25:01.160Z,4.00
2023-09-09T15:27:27.921Z,3.83
2023-09-09T15:29:54.609Z,4.93
2023-09-09T15:32:21.528Z,20.75
2023-09-09T15:34:48.464Z,25.70
2023-09-09T15:37:15.924Z,10.93
2023-09-09T15:39:45.230Z,4.97
2023-09-09T15:42:12.070Z,13.18
2023-09-09T15:44:38.778Z,19.35
2023-09-09T15:47:05.827Z,8.02
2023-09-09T15:49:32.625Z,4.85
2023-09-09T15:51:59.353Z,4.43
2023-09-09T15:54:26.118Z,4.45
2023-09-09T15:56:52.822Z,4.35
2023-09-09T15:59:19.578Z,5.20
2023-09-09T16:01:46.391Z,5.90
2023-09-09T16:04:13.276Z,5.50
2023-09-09T16:06:40.176Z,5.65
2023-09-09T16:09:06.919Z,5.45
2023-09-09T16:11:33.633Z,5.88
2023-09-09T16:14:00.398Z,5.45
2023-09-09T16:16:27.152Z,5.30
2023-09-09T16:18:53.956Z,5.80
2023-09-09T16:21:32.874Z,6.68
2023-09-09T16:24:00.432Z,6.30
2023-09-09T16:26:27.305Z,5.68
2023-09-09T16:28:54.122Z,5.35
2023-09-09T16:31:21.016Z,6.07
2023-09-09T16:33:47.858Z,5.40
2023-09-09T16:36:14.581Z,7.70
2023-09-09T16:38:41.621Z,6.03
2023-09-09T16:41:08.536Z,6.80
2023-09-09T16:43:40.530Z,5.85
2023-09-09T16:46:07.406Z,6.60
2023-09-09T16:48:34.320Z,6.60
2023-09-09T16:51:01.092Z,14.73
2023-09-09T16:53:27.925Z,10.27
2023-09-09T16:55:54.715Z,10.20
2023-09-09T16:58:21.573Z,9.75
2023-09-09T17:00:50.203Z,6.85
2023-09-09T17:03:17.426Z,13.85
2023-09-09T17:05:47.785Z,9.43
2023-09-09T17:08:14.634Z,8.90
2023-09-09T17:10:43.053Z,7.80
2023-09-09T17:13:12.226Z,7.28
2023-09-09T17:15:42.323Z,7.00
2023-09-09T17:18:11.707Z,8.48
2023-09-09T17:20:38.588Z,14.73
2023-09-09T17:23:05.365Z,14.70
2023-09-09T17:25:32.374Z,9.13
2023-09-09T17:28:01.519Z,6.18
2023-09-09T17:30:29.251Z,16.88
2023-09-09T17:32:57.301Z,12.13
2023-09-09T17:35:26.316Z,14.00
2023-09-09T17:37:53.557Z,11.85
2023-09-09T17:40:26.003Z,10.90
2023-09-09T17:43:01.475Z,18.08
2023-09-09T17:45:32.491Z,20.13
2023-09-09T17:48:07.381Z,18.80
2023-09-09T17:50:34.335Z,13.38
2023-09-09T17:53:08.952Z,6.75
2023-09-09T17:55:37.859Z,6.80
2023-09-09T17:58:07.316Z,9.00
2023-09-09T18:00:37.486Z,9.48
2023-09-09T18:03:04.642Z,9.55
2023-09-09T18:05:36.797Z,7.40
2023-09-09T18:08:04.431Z,7.68
2023-09-09T18:10:31.295Z,7.88
2023-09-09T18:12:58.177Z,9.32
2023-09-09T18:15:24.922Z,9.35
2023-09-09T18:17:51.838Z,9.98
2023-09-09T18:20:18.962Z,10.00
2023-09-09T18:22:45.845Z,9.23
2023-09-09T18:25:12.670Z,9.38
2023-09-09T18:27:39.452Z,9.25
2023-09-09T18:30:09.318Z,9.45
2023-09-09T18:32:36.467Z,8.80
2023-09-09T18:35:04.209Z,8.95
2023-09-09T18:37:32.182Z,9.02
2023-09-09T18:39:59.073Z,8.63
2023-09-09T18:42:26.413Z,8.25
2023-09-09T18:44:53.129Z,9.30
2023-09-09T18:47:19.904Z,8.48
2023-09-09T18:49:46.670Z,8.20
2023-09-09T18:52:13.609Z,9.50
2023-09-09T18:54:40.421Z,9.48
2023-09-09T18:57:10.086Z,8.40
2023-09-09T18:59:36.811Z,8.63
2023-09-09T19:02:04.395Z,9.82
2023-09-09T19:04:31.796Z,44.55
2023-09-09T19:06:58.719Z,80.90
2023-09-09T19:09:25.464Z,61.83
2023-09-09T19:11:54.901Z,29.25
2023-09-09T19:14:21.714Z,15.02
2023-09-09T19:16:48.480Z,11.02
2023-09-09T19:19:15.264Z,10.63
2023-09-09T19:21:42.234Z,10.50
2023-09-09T19:24:09.225Z,10.18
2023-09-09T19:26:36.346Z,10.18
2023-09-09T19:29:03.085Z,10.73
2023-09-09T19:31:29.899Z,12.07
2023-09-09T19:33:56.643Z,28.33
2023-09-09T19:36:23.373Z,41.55
2023-09-09T19:38:50.235Z,40.50
2023-09-09T19:41:16.966Z,29.40
2023-09-09T19:43:43.712Z,18.17
2023-09-09T19:46:10.831Z,14.18
2023-09-09T19:48:37.762Z,15.43
2023-09-09T19:51:04.739Z,16.23
2023-09-09T19:53:31.536Z,14.82
2023-09-09T19:55:58.680Z,13.55
2023-09-09T19:58:25.633Z,12.82
2023-09-09T20:00:52.501Z,11.52
2023-09-09T20:03:19.280Z,10.55
2023-09-09T20:05:50.377Z,11.50
2023-09-09T20:08:17.105Z,10.80
2023-09-09T20:10:45.651Z,12.05
2023-09-09T20:13:12.374Z,12.52
2023-09-09T20:15:42.438Z,11.95
2023-09-09T20:18:09.719Z,11.50
2023-09-09T20:20:39.835Z,12.35
2023-09-09T20:23:06.549Z,14.57
2023-09-09T20:25:33.608Z,13.00
2023-09-09T20:28:00.361Z,12.25
2023-09-09T20:30:27.342Z,11.82
2023-09-09T20:32:54.078Z,12.18
2023-09-09T20:35:34.084Z,11.30
2023-09-09T20:38:01.741Z,11.32
2023-09-09T20:40:28.906Z,10.73
2023-09-09T20:43:03.495Z,11.73
2023-09-09T20:45:30.823Z,10.77
2023-09-09T20:47:57.756Z,12.10
2023-09-09T20:50:26.463Z,11.63
2023-09-09T20:52:54.527Z,11.23
2023-09-09T20:55:24.046Z,12.10
2023-09-09T20:57:51.257Z,10.85
2023-09-09T21:00:19.662Z,12.43
2023-09-09T21:02:48.210Z,12.02
2023-09-09T21:05:16.123Z,12.25
2023-09-09T21:07:43.573Z,11.93
2023-09-09T21:10:11.426Z,11.98
2023-09-09T21:12:39.054Z,12.25
2023-09-09T21:15:06.435Z,11.27
2023-09-09T21:17:34.294Z,12.57
2023-09-09T21:20:04.095Z,11.80
2023-09-09T21:22:31.758Z,11.45
2023-09-09T21:25:02.035Z,10.55
2023-09-09T21:27:29.684Z,10.52
2023-09-09T21:29:56.709Z,11.57
2023-09-09T21:32:24.022Z,11.20
2023-09-09T21:34:53.685Z,11.27
2023-09-09T21:37:21.341Z,10.85
2023-09-09T21:39:48.803Z,11.07
2023-09-09T21:42:15.804Z,11.68
2023-09-09T21:44:44.788Z,11.55
2023-09-09T21:47:11.617Z,11.77
2023-09-09T21:49:38.541Z,11.25
2023-09-09T21:52:06.422Z,11.38
2023-09-09T21:54:33.110Z,11.95
2023-09-09T21:56:59.864Z,13.05
2023-09-09T21:59:26.626Z,12.05
2023-09-09T22:01:53.409Z,10.90
2023-09-09T22:04:20.178Z,12.05
2023-09-09T22:06:47.291Z,11.80
2023-09-09T22:09:14.018Z,14.35
2023-09-09T22:11:40.805Z,12.02
2023-09-09T22:14:07.855Z,11.43
2023-09-09T22:16:34.701Z,11.60
2023-09-09T22:19:01.684Z,11.98
2023-09-09T22:21:28.472Z,11.13
2023-09-09T22:23:56.031Z,11.35
2023-09-09T22:26:30.034Z,12.45
2023-09-09T22:28:57.524Z,11.45
2023-09-09T22:31:28.821Z,12.43
2023-09-09T22:33:55.706Z,12.05
2023-09-09T22:36:22.453Z,12.00
2023-09-09T22:38:51.522Z,11.13
2023-09-09T22:41:18.689Z,11.80
2023-09-09T22:43:45.427Z,12.07
2023-09-09T22:46:12.329Z,11.32
2023-09-09T22:48:39.255Z,11.98
2023-09-09T22:51:07.405Z,12.15
2023-09-09T22:53:34.557Z,11.98
2023-09-09T22:56:02.369Z,12.18
2023-09-09T22:58:29.416Z,11.50
2023-09-09T23:00:59.145Z,12.18
2023-09-09T23:03:26.393Z,11.93
2023-09-09T23:05:53.446Z,13.40
2023-09-09T23:08:20.262Z,12.80
2023-09-09T23:10:47.142Z,12.93
2023-09-09T23:13:14.325Z,12.88
2023-09-09T23:15:41.336Z,12.98
2023-09-09T23:18:08.236Z,13.68
2023-09-09T23:20:35.273Z,12.98
2023-09-09T23:23:02.332Z,13.45
2023-09-09T23:25:29.305Z,12.85
2023-09-09T23:27:56.514Z,13.88
2023-09-09T23:30:23.288Z,14.30
2023-09-09T23:32:50.198Z,13.32
2023-09-09T23:35:17.865Z,13.73
2023-09-09T23:37:45.089Z,13.48
2023-09-09T23:40:12.667Z,13.07
2023-09-09T23:42:39.557Z,13.25
2023-09-09T23:45:07.349Z,13.15
2023-09-09T23:47:34.099Z,13.35
2023-09-09T23:50:00.976Z,12.98
2023-09-09T23:52:27.730Z,13.40
2023-09-09T23:54:54.564Z,13.70
2023-09-09T23:57:21.285Z,13.80
2023-09-09T23:59:48.010Z,12.52
